This is the latest recevied weather packets stored in our database for station/object WC4PEM-14. If no packets are shown the sender has not sent any weather packets the latest 10 day(s).
| Time | Temp. | Humidity | Pressure | Rain* | Wind** | Luminosity | Snow |
|---|---|---|---|---|---|---|---|
| 1778117189 | 27.78° C | 55% | 1015.2 hPa | 0 mm | - | - | - |
| 1778116981 | 27.78° C | 55% | 1015.2 hPa | 0 mm | - | - | - |
| 1778116893 | 28.33° C | 55% | 1014.9 hPa | 0 mm | - | - | - |
| 1778116799 | 28.33° C | 54% | 1014.7 hPa | 0 mm | - | - | - |
| 1778116681 | 28.33° C | 55% | 1014.9 hPa | 0 mm | - | - | - |
| 1778116382 | 28.33° C | 54% | 1014.7 hPa | 0 mm | - | - | - |
| 1778116095 | 28.33° C | 54% | 1014.8 hPa | 0 mm | - | - | - |
| 1778116082 | 28.33° C | 54% | 1014.8 hPa | 0 mm | - | - | - |
| 1778115782 | 28.33° C | 54% | 1014.8 hPa | 0 mm | - | - | - |
| 1778115523 | 28.89° C | 53% | 1014.7 hPa | 0 mm | - | - | - |
| 1778115482 | 28.89° C | 54% | 1014.9 hPa | 0 mm | - | - | - |
| 1778115182 | 28.89° C | 53% | 1014.7 hPa | 0 mm | - | - | - |
| 1778114882 | 28.89° C | 53% | 1014.6 hPa | 0 mm | - | - | - |
| 1778114785 | 29.44° C | 53% | 1014.7 hPa | 0 mm | - | - | - |
| 1778114582 | 29.44° C | 53% | 1014.7 hPa | 0 mm | - | - | - |
| 1778114578 | 29.44° C | 53% | 1014.5 hPa | 0 mm | - | - | - |
| 1778114282 | 29.44° C | 53% | 1014.5 hPa | 0 mm | - | - | - |
| 1778113982 | 29.44° C | 53% | 1014.5 hPa | 0 mm | - | - | - |
| 1778113682 | 30° C | 52% | 1014.4 hPa | 0 mm | - | - | - |
| 1778113554 | 30° C | 51% | 1014.4 hPa | 0 mm | - | - | - |
| 1778113382 | 30° C | 51% | 1014.4 hPa | 0 mm | - | - | - |
| 1778113310 | 32.22° C | 40% | 1014.1 hPa | 0 mm | - | - | - |
| 1778113082 | 30.56° C | 50% | 1014.4 hPa | 0 mm | - | - | - |
| 1778112782 | 31.11° C | 48% | 1014.4 hPa | 0 mm | - | - | - |
| 1778112626 | 31.67° C | 44% | 1014.3 hPa | 0 mm | - | - | - |
* Rain latest hour (hover to see other rain measurements)
** Current wind speed in m/s (hover to see current wind gust speed)